sensor_id;sensor_type;location;lat;lon;timestamp;P1;durP1;ratioP1;P2;durP2;ratioP2
41627;SDS011;27321;50.816;6.054;2023-02-22T00:03:00;13.55;;;8.23;;
41627;SDS011;27321;50.816;6.054;2023-02-22T00:06:02;12.13;;;8.93;;
41627;SDS011;27321;50.816;6.054;2023-02-22T00:09:05;11.33;;;8.13;;
41627;SDS011;27321;50.816;6.054;2023-02-22T00:12:08;11.27;;;8.37;;
41627;SDS011;27321;50.816;6.054;2023-02-22T00:15:09;11.37;;;8.30;;
41627;SDS011;27321;50.816;6.054;2023-02-22T00:18:15;10.97;;;7.73;;
41627;SDS011;27321;50.816;6.054;2023-02-22T00:21:17;11.10;;;7.90;;
41627;SDS011;27321;50.816;6.054;2023-02-22T00:24:18;10.10;;;7.80;;
41627;SDS011;27321;50.816;6.054;2023-02-22T00:27:22;11.17;;;8.07;;
41627;SDS011;27321;50.816;6.054;2023-02-22T00:30:25;11.43;;;7.55;;
41627;SDS011;27321;50.816;6.054;2023-02-22T00:33:29;14.20;;;8.10;;
41627;SDS011;27321;50.816;6.054;2023-02-22T00:36:31;10.77;;;7.50;;
41627;SDS011;27321;50.816;6.054;2023-02-22T00:39:32;10.67;;;7.77;;
41627;SDS011;27321;50.816;6.054;2023-02-22T00:42:33;9.60;;;7.43;;
41627;SDS011;27321;50.816;6.054;2023-02-22T00:45:34;10.70;;;7.27;;
41627;SDS011;27321;50.816;6.054;2023-02-22T00:48:36;11.50;;;8.07;;
41627;SDS011;27321;50.816;6.054;2023-02-22T00:51:37;9.03;;;7.17;;
41627;SDS011;27321;50.816;6.054;2023-02-22T00:54:38;10.65;;;7.13;;
41627;SDS011;27321;50.816;6.054;2023-02-22T00:57:39;9.43;;;7.37;;
41627;SDS011;27321;50.816;6.054;2023-02-22T01:00:41;9.10;;;6.88;;
41627;SDS011;27321;50.816;6.054;2023-02-22T01:03:43;9.97;;;7.33;;
41627;SDS011;27321;50.816;6.054;2023-02-22T01:06:44;8.85;;;7.28;;
41627;SDS011;27321;50.816;6.054;2023-02-22T01:09:45;8.23;;;6.35;;
41627;SDS011;27321;50.816;6.054;2023-02-22T01:12:47;10.52;;;7.00;;
41627;SDS011;27321;50.816;6.054;2023-02-22T01:15:49;7.87;;;6.40;;
41627;SDS011;27321;50.816;6.054;2023-02-22T01:18:50;9.15;;;6.47;;
41627;SDS011;27321;50.816;6.054;2023-02-22T01:21:51;9.57;;;6.10;;
41627;SDS011;27321;50.816;6.054;2023-02-22T01:24:53;9.07;;;6.50;;
41627;SDS011;27321;50.816;6.054;2023-02-22T01:27:55;9.27;;;6.40;;
41627;SDS011;27321;50.816;6.054;2023-02-22T01:30:58;8.63;;;6.07;;
41627;SDS011;27321;50.816;6.054;2023-02-22T01:34:00;6.80;;;5.60;;
41627;SDS011;27321;50.816;6.054;2023-02-22T01:37:01;7.63;;;5.27;;
41627;SDS011;27321;50.816;6.054;2023-02-22T01:40:03;7.33;;;5.60;;
41627;SDS011;27321;50.816;6.054;2023-02-22T01:46:23;8.47;;;5.97;;
41627;SDS011;27321;50.816;6.054;2023-02-22T01:49:29;7.63;;;5.53;;
41627;SDS011;27321;50.816;6.054;2023-02-22T01:52:50;8.37;;;5.40;;
41627;SDS011;27321;50.816;6.054;2023-02-22T01:55:52;8.88;;;6.45;;
41627;SDS011;27321;50.816;6.054;2023-02-22T01:59:00;7.67;;;5.53;;
41627;SDS011;27321;50.816;6.054;2023-02-22T02:02:06;6.63;;;5.07;;
41627;SDS011;27321;50.816;6.054;2023-02-22T02:05:07;7.88;;;5.88;;
41627;SDS011;27321;50.816;6.054;2023-02-22T02:11:21;5.87;;;4.90;;
41627;SDS011;27321;50.816;6.054;2023-02-22T02:14:25;6.13;;;4.87;;
41627;SDS011;27321;50.816;6.054;2023-02-22T02:17:26;5.63;;;4.78;;
41627;SDS011;27321;50.816;6.054;2023-02-22T02:27:48;6.23;;;5.37;;
41627;SDS011;27321;50.816;6.054;2023-02-22T02:35:13;5.90;;;4.60;;
41627;SDS011;27321;50.816;6.054;2023-02-22T02:38:44;5.17;;;4.23;;
41627;SDS011;27321;50.816;6.054;2023-02-22T02:42:17;5.67;;;4.57;;
41627;SDS011;27321;50.816;6.054;2023-02-22T02:45:26;5.03;;;4.13;;
41627;SDS011;27321;50.816;6.054;2023-02-22T02:51:59;5.90;;;4.20;;
41627;SDS011;27321;50.816;6.054;2023-02-22T02:55:02;4.77;;;4.07;;
41627;SDS011;27321;50.816;6.054;2023-02-22T02:58:07;4.00;;;3.57;;
41627;SDS011;27321;50.816;6.054;2023-02-22T03:08:40;4.18;;;3.78;;
41627;SDS011;27321;50.816;6.054;2023-02-22T03:12:06;4.33;;;3.93;;
41627;SDS011;27321;50.816;6.054;2023-02-22T03:19:44;4.30;;;3.75;;
41627;SDS011;27321;50.816;6.054;2023-02-22T03:23:06;4.10;;;3.70;;
41627;SDS011;27321;50.816;6.054;2023-02-22T03:26:28;5.13;;;3.97;;
41627;SDS011;27321;50.816;6.054;2023-02-22T03:29:43;4.00;;;3.60;;
41627;SDS011;27321;50.816;6.054;2023-02-22T03:32:49;4.73;;;3.70;;
41627;SDS011;27321;50.816;6.054;2023-02-22T03:35:58;4.23;;;3.83;;
41627;SDS011;27321;50.816;6.054;2023-02-22T03:39:13;3.80;;;3.40;;
41627;SDS011;27321;50.816;6.054;2023-02-22T03:42:25;4.67;;;3.80;;
41627;SDS011;27321;50.816;6.054;2023-02-22T03:45:35;3.77;;;3.47;;
41627;SDS011;27321;50.816;6.054;2023-02-22T03:48:53;4.07;;;3.57;;
41627;SDS011;27321;50.816;6.054;2023-02-22T03:52:10;4.37;;;3.33;;
41627;SDS011;27321;50.816;6.054;2023-02-22T03:55:13;3.83;;;3.43;;
41627;SDS011;27321;50.816;6.054;2023-02-22T03:58:17;3.53;;;3.23;;
41627;SDS011;27321;50.816;6.054;2023-02-22T04:01:21;4.00;;;3.60;;
41627;SDS011;27321;50.816;6.054;2023-02-22T04:04:23;3.88;;;3.47;;
41627;SDS011;27321;50.816;6.054;2023-02-22T04:07:25;3.70;;;3.20;;
41627;SDS011;27321;50.816;6.054;2023-02-22T04:10:26;3.50;;;3.00;;
41627;SDS011;27321;50.816;6.054;2023-02-22T04:13:28;3.25;;;2.90;;
41627;SDS011;27321;50.816;6.054;2023-02-22T04:16:29;3.38;;;3.08;;
41627;SDS011;27321;50.816;6.054;2023-02-22T04:19:31;4.18;;;3.60;;
41627;SDS011;27321;50.816;6.054;2023-02-22T04:22:32;3.92;;;3.30;;
41627;SDS011;27321;50.816;6.054;2023-02-22T04:25:33;4.40;;;3.40;;
41627;SDS011;27321;50.816;6.054;2023-02-22T04:28:44;4.43;;;3.77;;
41627;SDS011;27321;50.816;6.054;2023-02-22T04:31:50;4.17;;;3.40;;
41627;SDS011;27321;50.816;6.054;2023-02-22T04:34:51;3.47;;;3.07;;
41627;SDS011;27321;50.816;6.054;2023-02-22T04:37:52;4.30;;;3.47;;
41627;SDS011;27321;50.816;6.054;2023-02-22T04:40:53;4.33;;;3.73;;
41627;SDS011;27321;50.816;6.054;2023-02-22T04:43:55;6.10;;;4.05;;
41627;SDS011;27321;50.816;6.054;2023-02-22T04:46:58;4.50;;;3.73;;
41627;SDS011;27321;50.816;6.054;2023-02-22T04:49:59;5.22;;;3.75;;
41627;SDS011;27321;50.816;6.054;2023-02-22T04:53:03;5.97;;;4.20;;
41627;SDS011;27321;50.816;6.054;2023-02-22T04:56:04;6.15;;;4.00;;
41627;SDS011;27321;50.816;6.054;2023-02-22T04:59:06;6.68;;;4.10;;
41627;SDS011;27321;50.816;6.054;2023-02-22T05:02:07;5.35;;;3.88;;
41627;SDS011;27321;50.816;6.054;2023-02-22T05:05:08;5.27;;;4.67;;
41627;SDS011;27321;50.816;6.054;2023-02-22T05:08:09;6.13;;;4.50;;
41627;SDS011;27321;50.816;6.054;2023-02-22T05:11:10;6.00;;;4.17;;
41627;SDS011;27321;50.816;6.054;2023-02-22T05:14:11;6.23;;;4.63;;
41627;SDS011;27321;50.816;6.054;2023-02-22T05:17:12;6.03;;;4.25;;
41627;SDS011;27321;50.816;6.054;2023-02-22T05:20:32;6.47;;;4.20;;
41627;SDS011;27321;50.816;6.054;2023-02-22T05:23:34;6.60;;;3.83;;
41627;SDS011;27321;50.816;6.054;2023-02-22T05:26:35;5.60;;;4.20;;
41627;SDS011;27321;50.816;6.054;2023-02-22T05:29:36;5.67;;;4.33;;
41627;SDS011;27321;50.816;6.054;2023-02-22T05:32:37;6.50;;;4.57;;
41627;SDS011;27321;50.816;6.054;2023-02-22T05:35:38;4.40;;;3.50;;
41627;SDS011;27321;50.816;6.054;2023-02-22T05:38:39;5.70;;;4.57;;
41627;SDS011;27321;50.816;6.054;2023-02-22T05:41:42;5.83;;;4.50;;
41627;SDS011;27321;50.816;6.054;2023-02-22T05:44:43;5.50;;;4.27;;
41627;SDS011;27321;50.816;6.054;2023-02-22T05:47:44;6.70;;;4.63;;
41627;SDS011;27321;50.816;6.054;2023-02-22T05:50:45;7.47;;;4.18;;
41627;SDS011;27321;50.816;6.054;2023-02-22T05:53:48;5.07;;;3.97;;
41627;SDS011;27321;50.816;6.054;2023-02-22T05:56:51;5.90;;;4.50;;
41627;SDS011;27321;50.816;6.054;2023-02-22T05:59:52;5.77;;;5.10;;
41627;SDS011;27321;50.816;6.054;2023-02-22T06:02:56;8.57;;;4.60;;
41627;SDS011;27321;50.816;6.054;2023-02-22T06:06:03;6.80;;;4.37;;
41627;SDS011;27321;50.816;6.054;2023-02-22T06:09:05;8.55;;;4.85;;
41627;SDS011;27321;50.816;6.054;2023-02-22T06:12:06;7.72;;;4.95;;
41627;SDS011;27321;50.816;6.054;2023-02-22T06:15:08;7.43;;;4.70;;
41627;SDS011;27321;50.816;6.054;2023-02-22T06:18:09;6.38;;;5.13;;
41627;SDS011;27321;50.816;6.054;2023-02-22T06:21:10;7.40;;;5.03;;
41627;SDS011;27321;50.816;6.054;2023-02-22T06:24:11;8.30;;;5.23;;
41627;SDS011;27321;50.816;6.054;2023-02-22T06:27:12;6.93;;;4.40;;
41627;SDS011;27321;50.816;6.054;2023-02-22T06:30:14;6.43;;;4.50;;
41627;SDS011;27321;50.816;6.054;2023-02-22T06:33:18;6.70;;;5.00;;
41627;SDS011;27321;50.816;6.054;2023-02-22T06:36:19;6.77;;;4.70;;
41627;SDS011;27321;50.816;6.054;2023-02-22T06:39:19;6.50;;;4.40;;
41627;SDS011;27321;50.816;6.054;2023-02-22T06:42:20;7.13;;;4.77;;
41627;SDS011;27321;50.816;6.054;2023-02-22T06:45:22;6.40;;;4.90;;
41627;SDS011;27321;50.816;6.054;2023-02-22T06:48:23;6.45;;;4.82;;
41627;SDS011;27321;50.816;6.054;2023-02-22T06:51:25;7.17;;;4.63;;
41627;SDS011;27321;50.816;6.054;2023-02-22T06:54:26;6.87;;;4.87;;
41627;SDS011;27321;50.816;6.054;2023-02-22T06:57:27;6.57;;;4.83;;
41627;SDS011;27321;50.816;6.054;2023-02-22T07:00:29;7.50;;;5.33;;
41627;SDS011;27321;50.816;6.054;2023-02-22T07:03:31;7.30;;;5.13;;
41627;SDS011;27321;50.816;6.054;2023-02-22T07:06:34;8.13;;;5.47;;
41627;SDS011;27321;50.816;6.054;2023-02-22T07:09:35;6.23;;;4.63;;
41627;SDS011;27321;50.816;6.054;2023-02-22T07:12:36;7.47;;;5.35;;
41627;SDS011;27321;50.816;6.054;2023-02-22T07:15:37;6.37;;;4.73;;
41627;SDS011;27321;50.816;6.054;2023-02-22T07:18:38;9.87;;;5.43;;
41627;SDS011;27321;50.816;6.054;2023-02-22T07:21:39;8.13;;;5.10;;
41627;SDS011;27321;50.816;6.054;2023-02-22T07:24:40;7.07;;;5.07;;
41627;SDS011;27321;50.816;6.054;2023-02-22T07:27:41;9.60;;;5.17;;
41627;SDS011;27321;50.816;6.054;2023-02-22T07:30:43;6.75;;;4.72;;
41627;SDS011;27321;50.816;6.054;2023-02-22T07:33:47;9.55;;;5.07;;
41627;SDS011;27321;50.816;6.054;2023-02-22T07:36:48;8.20;;;4.80;;
41627;SDS011;27321;50.816;6.054;2023-02-22T07:39:49;8.07;;;5.17;;
41627;SDS011;27321;50.816;6.054;2023-02-22T07:42:55;5.85;;;4.30;;
41627;SDS011;27321;50.816;6.054;2023-02-22T07:46:16;7.63;;;4.63;;
41627;SDS011;27321;50.816;6.054;2023-02-22T07:49:17;6.50;;;4.47;;
41627;SDS011;27321;50.816;6.054;2023-02-22T07:52:19;8.00;;;5.03;;
41627;SDS011;27321;50.816;6.054;2023-02-22T07:55:21;5.82;;;4.18;;
41627;SDS011;27321;50.816;6.054;2023-02-22T07:58:26;6.53;;;4.40;;
41627;SDS011;27321;50.816;6.054;2023-02-22T08:01:29;6.90;;;4.73;;
41627;SDS011;27321;50.816;6.054;2023-02-22T08:04:31;8.30;;;4.53;;
41627;SDS011;27321;50.816;6.054;2023-02-22T08:07:32;5.40;;;3.97;;
41627;SDS011;27321;50.816;6.054;2023-02-22T08:10:33;5.73;;;4.10;;
41627;SDS011;27321;50.816;6.054;2023-02-22T08:16:36;6.90;;;4.85;;
41627;SDS011;27321;50.816;6.054;2023-02-22T08:19:37;6.47;;;4.40;;
41627;SDS011;27321;50.816;6.054;2023-02-22T08:22:38;5.97;;;3.93;;
41627;SDS011;27321;50.816;6.054;2023-02-22T08:25:42;6.37;;;4.40;;
41627;SDS011;27321;50.816;6.054;2023-02-22T08:28:43;6.28;;;3.72;;
41627;SDS011;27321;50.816;6.054;2023-02-22T08:31:48;6.30;;;4.00;;
41627;SDS011;27321;50.816;6.054;2023-02-22T08:34:53;7.03;;;4.53;;
41627;SDS011;27321;50.816;6.054;2023-02-22T08:37:55;6.37;;;4.50;;
41627;SDS011;27321;50.816;6.054;2023-02-22T08:40:59;6.40;;;4.60;;
41627;SDS011;27321;50.816;6.054;2023-02-22T08:44:00;7.30;;;5.07;;
41627;SDS011;27321;50.816;6.054;2023-02-22T08:47:02;8.05;;;5.07;;
41627;SDS011;27321;50.816;6.054;2023-02-22T08:50:03;12.05;;;6.47;;
41627;SDS011;27321;50.816;6.054;2023-02-22T08:53:07;10.87;;;6.50;;
41627;SDS011;27321;50.816;6.054;2023-02-22T08:56:09;9.90;;;6.43;;
41627;SDS011;27321;50.816;6.054;2023-02-22T08:59:11;10.43;;;7.13;;
41627;SDS011;27321;50.816;6.054;2023-02-22T09:02:16;9.13;;;6.43;;
41627;SDS011;27321;50.816;6.054;2023-02-22T09:05:20;8.00;;;5.67;;
41627;SDS011;27321;50.816;6.054;2023-02-22T09:08:21;10.73;;;5.72;;
41627;SDS011;27321;50.816;6.054;2023-02-22T09:11:22;9.03;;;5.43;;
41627;SDS011;27321;50.816;6.054;2023-02-22T09:14:23;10.30;;;5.53;;
41627;SDS011;27321;50.816;6.054;2023-02-22T09:17:24;8.73;;;5.20;;
41627;SDS011;27321;50.816;6.054;2023-02-22T09:20:26;10.25;;;5.85;;
41627;SDS011;27321;50.816;6.054;2023-02-22T09:23:27;7.57;;;5.07;;
41627;SDS011;27321;50.816;6.054;2023-02-22T09:26:29;9.02;;;5.57;;
41627;SDS011;27321;50.816;6.054;2023-02-22T09:29:30;7.13;;;4.57;;
41627;SDS011;27321;50.816;6.054;2023-02-22T09:32:30;8.40;;;5.43;;
41627;SDS011;27321;50.816;6.054;2023-02-22T09:35:31;10.27;;;5.47;;
41627;SDS011;27321;50.816;6.054;2023-02-22T09:38:35;8.70;;;5.30;;
41627;SDS011;27321;50.816;6.054;2023-02-22T09:41:38;6.90;;;4.80;;
41627;SDS011;27321;50.816;6.054;2023-02-22T09:45:13;5.67;;;3.90;;
41627;SDS011;27321;50.816;6.054;2023-02-22T09:55:37;7.03;;;3.77;;
41627;SDS011;27321;50.816;6.054;2023-02-22T09:58:46;7.43;;;4.93;;
41627;SDS011;27321;50.816;6.054;2023-02-22T10:01:57;5.67;;;3.50;;
41627;SDS011;27321;50.816;6.054;2023-02-22T10:05:19;5.90;;;3.77;;
41627;SDS011;27321;50.816;6.054;2023-02-22T10:08:27;6.97;;;3.80;;
41627;SDS011;27321;50.816;6.054;2023-02-22T10:11:43;8.00;;;3.47;;
41627;SDS011;27321;50.816;6.054;2023-02-22T10:22:17;6.57;;;3.57;;
41627;SDS011;27321;50.816;6.054;2023-02-22T10:25:48;8.17;;;3.90;;
41627;SDS011;27321;50.816;6.054;2023-02-22T10:29:00;6.60;;;4.35;;
41627;SDS011;27321;50.816;6.054;2023-02-22T10:32:16;5.70;;;4.17;;
41627;SDS011;27321;50.816;6.054;2023-02-22T10:35:27;7.30;;;3.87;;
41627;SDS011;27321;50.816;6.054;2023-02-22T10:38:32;7.63;;;4.67;;
41627;SDS011;27321;50.816;6.054;2023-02-22T10:41:35;6.87;;;4.40;;
41627;SDS011;27321;50.816;6.054;2023-02-22T10:44:44;6.47;;;4.00;;
41627;SDS011;27321;50.816;6.054;2023-02-22T10:47:46;8.43;;;5.20;;
41627;SDS011;27321;50.816;6.054;2023-02-22T10:50:49;6.60;;;4.37;;
41627;SDS011;27321;50.816;6.054;2023-02-22T10:53:57;6.57;;;4.90;;
41627;SDS011;27321;50.816;6.054;2023-02-22T10:57:20;6.23;;;4.07;;
41627;SDS011;27321;50.816;6.054;2023-02-22T11:00:30;6.40;;;4.37;;
41627;SDS011;27321;50.816;6.054;2023-02-22T11:03:36;7.27;;;4.60;;
41627;SDS011;27321;50.816;6.054;2023-02-22T11:06:38;7.13;;;5.13;;
41627;SDS011;27321;50.816;6.054;2023-02-22T11:10:21;9.83;;;5.10;;
41627;SDS011;27321;50.816;6.054;2023-02-22T11:13:24;7.63;;;4.87;;
41627;SDS011;27321;50.816;6.054;2023-02-22T11:16:37;8.20;;;4.77;;
41627;SDS011;27321;50.816;6.054;2023-02-22T11:19:47;8.40;;;5.20;;
41627;SDS011;27321;50.816;6.054;2023-02-22T11:22:56;6.13;;;5.00;;
41627;SDS011;27321;50.816;6.054;2023-02-22T11:26:02;6.37;;;4.70;;
41627;SDS011;27321;50.816;6.054;2023-02-22T11:29:14;8.13;;;5.47;;
41627;SDS011;27321;50.816;6.054;2023-02-22T11:32:25;7.90;;;5.38;;
41627;SDS011;27321;50.816;6.054;2023-02-22T11:35:34;6.57;;;4.65;;
41627;SDS011;27321;50.816;6.054;2023-02-22T11:38:56;5.45;;;4.20;;
41627;SDS011;27321;50.816;6.054;2023-02-22T11:42:19;8.47;;;4.70;;
41627;SDS011;27321;50.816;6.054;2023-02-22T11:45:24;7.97;;;4.50;;
41627;SDS011;27321;50.816;6.054;2023-02-22T11:48:30;7.68;;;4.78;;
41627;SDS011;27321;50.816;6.054;2023-02-22T11:51:42;7.32;;;5.18;;
41627;SDS011;27321;50.816;6.054;2023-02-22T11:55:21;6.95;;;4.45;;
41627;SDS011;27321;50.816;6.054;2023-02-22T11:58:29;6.82;;;5.35;;
41627;SDS011;27321;50.816;6.054;2023-02-22T12:01:56;7.47;;;5.72;;
41627;SDS011;27321;50.816;6.054;2023-02-22T12:05:14;8.88;;;6.40;;
41627;SDS011;27321;50.816;6.054;2023-02-22T12:12:06;9.90;;;6.05;;
41627;SDS011;27321;50.816;6.054;2023-02-22T12:15:43;12.40;;;5.97;;
41627;SDS011;27321;50.816;6.054;2023-02-22T12:19:46;8.73;;;6.05;;
41627;SDS011;27321;50.816;6.054;2023-02-22T12:26:48;9.80;;;6.38;;
41627;SDS011;27321;50.816;6.054;2023-02-22T12:29:57;12.83;;;6.87;;
41627;SDS011;27321;50.816;6.054;2023-02-22T12:33:20;7.75;;;5.95;;
41627;SDS011;27321;50.816;6.054;2023-02-22T12:36:36;8.65;;;5.40;;
41627;SDS011;27321;50.816;6.054;2023-02-22T12:46:33;8.68;;;5.72;;
41627;SDS011;27321;50.816;6.054;2023-02-22T12:50:02;8.68;;;5.97;;
41627;SDS011;27321;50.816;6.054;2023-02-22T12:53:30;8.35;;;6.15;;
41627;SDS011;27321;50.816;6.054;2023-02-22T12:56:56;7.72;;;5.50;;
41627;SDS011;27321;50.816;6.054;2023-02-22T13:00:09;9.00;;;5.88;;
41627;SDS011;27321;50.816;6.054;2023-02-22T13:06:35;12.33;;;7.47;;
41627;SDS011;27321;50.816;6.054;2023-02-22T13:13:33;7.03;;;5.80;;
41627;SDS011;27321;50.816;6.054;2023-02-22T13:17:00;10.40;;;6.57;;
41627;SDS011;27321;50.816;6.054;2023-02-22T13:20:53;6.72;;;5.40;;
41627;SDS011;27321;50.816;6.054;2023-02-22T13:24:24;9.63;;;6.78;;
41627;SDS011;27321;50.816;6.054;2023-02-22T13:31:45;10.85;;;6.63;;
41627;SDS011;27321;50.816;6.054;2023-02-22T13:34:58;8.73;;;6.13;;
41627;SDS011;27321;50.816;6.054;2023-02-22T13:52:20;8.07;;;5.43;;
41627;SDS011;27321;50.816;6.054;2023-02-22T13:55:25;8.30;;;5.40;;
41627;SDS011;27321;50.816;6.054;2023-02-22T13:58:31;8.73;;;5.97;;
41627;SDS011;27321;50.816;6.054;2023-02-22T14:01:57;6.88;;;5.07;;
41627;SDS011;27321;50.816;6.054;2023-02-22T14:08:44;9.00;;;5.82;;
41627;SDS011;27321;50.816;6.054;2023-02-22T14:11:46;6.00;;;4.95;;
41627;SDS011;27321;50.816;6.054;2023-02-22T14:18:14;11.90;;;6.15;;
41627;SDS011;27321;50.816;6.054;2023-02-22T14:21:17;7.90;;;6.10;;
41627;SDS011;27321;50.816;6.054;2023-02-22T14:24:21;11.27;;;7.30;;
41627;SDS011;27321;50.816;6.054;2023-02-22T14:27:22;8.70;;;6.35;;
41627;SDS011;27321;50.816;6.054;2023-02-22T14:30:24;8.05;;;6.05;;
41627;SDS011;27321;50.816;6.054;2023-02-22T14:33:49;7.20;;;5.70;;
41627;SDS011;27321;50.816;6.054;2023-02-22T14:40:35;9.75;;;6.72;;
41627;SDS011;27321;50.816;6.054;2023-02-22T14:43:37;14.38;;;7.82;;
41627;SDS011;27321;50.816;6.054;2023-02-22T14:46:39;12.07;;;6.82;;
41627;SDS011;27321;50.816;6.054;2023-02-22T14:49:45;9.80;;;5.90;;
41627;SDS011;27321;50.816;6.054;2023-02-22T14:53:00;8.20;;;5.93;;
41627;SDS011;27321;50.816;6.054;2023-02-22T14:56:14;6.32;;;5.43;;
41627;SDS011;27321;50.816;6.054;2023-02-22T14:59:22;8.05;;;5.85;;
41627;SDS011;27321;50.816;6.054;2023-02-22T15:02:25;8.40;;;6.03;;
41627;SDS011;27321;50.816;6.054;2023-02-22T15:05:28;7.05;;;6.10;;
41627;SDS011;27321;50.816;6.054;2023-02-22T15:08:37;7.97;;;6.10;;
41627;SDS011;27321;50.816;6.054;2023-02-22T15:11:40;7.53;;;5.95;;
41627;SDS011;27321;50.816;6.054;2023-02-22T15:14:45;8.95;;;6.93;;
41627;SDS011;27321;50.816;6.054;2023-02-22T15:17:53;9.63;;;6.63;;
41627;SDS011;27321;50.816;6.054;2023-02-22T15:20:56;11.02;;;6.57;;
41627;SDS011;27321;50.816;6.054;2023-02-22T15:24:29;10.00;;;6.95;;
41627;SDS011;27321;50.816;6.054;2023-02-22T15:27:33;10.75;;;7.43;;
41627;SDS011;27321;50.816;6.054;2023-02-22T15:30:36;9.20;;;6.75;;
41627;SDS011;27321;50.816;6.054;2023-02-22T15:33:38;7.45;;;5.82;;
41627;SDS011;27321;50.816;6.054;2023-02-22T15:36:43;9.90;;;7.15;;
41627;SDS011;27321;50.816;6.054;2023-02-22T15:39:46;9.60;;;6.75;;
41627;SDS011;27321;50.816;6.054;2023-02-22T15:45:58;8.80;;;6.25;;
41627;SDS011;27321;50.816;6.054;2023-02-22T15:52:22;8.90;;;7.22;;
41627;SDS011;27321;50.816;6.054;2023-02-22T15:58:42;8.20;;;7.05;;
41627;SDS011;27321;50.816;6.054;2023-02-22T16:01:47;10.00;;;6.72;;
41627;SDS011;27321;50.816;6.054;2023-02-22T16:04:57;10.67;;;7.03;;
41627;SDS011;27321;50.816;6.054;2023-02-22T16:08:21;12.50;;;8.60;;
41627;SDS011;27321;50.816;6.054;2023-02-22T16:11:32;9.90;;;6.93;;
41627;SDS011;27321;50.816;6.054;2023-02-22T16:14:42;6.90;;;6.20;;
41627;SDS011;27321;50.816;6.054;2023-02-22T16:17:44;9.00;;;6.85;;
41627;SDS011;27321;50.816;6.054;2023-02-22T16:20:45;9.63;;;6.80;;
41627;SDS011;27321;50.816;6.054;2023-02-22T16:24:04;10.75;;;7.60;;
41627;SDS011;27321;50.816;6.054;2023-02-22T16:27:15;10.23;;;8.00;;
41627;SDS011;27321;50.816;6.054;2023-02-22T16:33:32;12.43;;;8.27;;
41627;SDS011;27321;50.816;6.054;2023-02-22T16:36:38;13.70;;;8.48;;
41627;SDS011;27321;50.816;6.054;2023-02-22T16:39:43;10.73;;;8.53;;
41627;SDS011;27321;50.816;6.054;2023-02-22T16:42:45;12.23;;;9.60;;
41627;SDS011;27321;50.816;6.054;2023-02-22T16:45:46;14.80;;;10.67;;
41627;SDS011;27321;50.816;6.054;2023-02-22T16:51:53;16.23;;;10.13;;
41627;SDS011;27321;50.816;6.054;2023-02-22T16:54:58;15.03;;;10.23;;
41627;SDS011;27321;50.816;6.054;2023-02-22T16:58:01;12.20;;;9.60;;
41627;SDS011;27321;50.816;6.054;2023-02-22T17:01:03;14.87;;;10.37;;
41627;SDS011;27321;50.816;6.054;2023-02-22T17:04:09;12.75;;;10.07;;
41627;SDS011;27321;50.816;6.054;2023-02-22T17:07:19;12.73;;;9.37;;
41627;SDS011;27321;50.816;6.054;2023-02-22T17:10:29;17.60;;;11.23;;
41627;SDS011;27321;50.816;6.054;2023-02-22T17:13:30;14.70;;;10.10;;
41627;SDS011;27321;50.816;6.054;2023-02-22T17:16:31;13.52;;;9.90;;
41627;SDS011;27321;50.816;6.054;2023-02-22T17:19:32;12.73;;;9.85;;
41627;SDS011;27321;50.816;6.054;2023-02-22T17:22:33;16.80;;;10.40;;
41627;SDS011;27321;50.816;6.054;2023-02-22T17:28:42;14.13;;;10.60;;
41627;SDS011;27321;50.816;6.054;2023-02-22T17:31:44;15.73;;;12.27;;
41627;SDS011;27321;50.816;6.054;2023-02-22T17:34:45;16.00;;;10.80;;
41627;SDS011;27321;50.816;6.054;2023-02-22T17:37:46;15.85;;;10.90;;
41627;SDS011;27321;50.816;6.054;2023-02-22T17:40:47;13.52;;;10.30;;
41627;SDS011;27321;50.816;6.054;2023-02-22T17:43:51;12.43;;;10.20;;
41627;SDS011;27321;50.816;6.054;2023-02-22T17:46:53;16.33;;;11.57;;
41627;SDS011;27321;50.816;6.054;2023-02-22T17:49:54;14.57;;;11.60;;
41627;SDS011;27321;50.816;6.054;2023-02-22T17:52:57;16.33;;;12.07;;
41627;SDS011;27321;50.816;6.054;2023-02-22T17:56:08;19.53;;;13.07;;
41627;SDS011;27321;50.816;6.054;2023-02-22T17:59:12;18.50;;;12.05;;
41627;SDS011;27321;50.816;6.054;2023-02-22T18:02:14;14.77;;;12.10;;
41627;SDS011;27321;50.816;6.054;2023-02-22T18:05:15;16.23;;;13.20;;
41627;SDS011;27321;50.816;6.054;2023-02-22T18:08:18;17.50;;;12.97;;
41627;SDS011;27321;50.816;6.054;2023-02-22T18:11:20;17.98;;;12.48;;
41627;SDS011;27321;50.816;6.054;2023-02-22T18:14:25;15.63;;;12.23;;
41627;SDS011;27321;50.816;6.054;2023-02-22T18:17:28;14.55;;;11.85;;
41627;SDS011;27321;50.816;6.054;2023-02-22T18:20:30;18.10;;;13.00;;
41627;SDS011;27321;50.816;6.054;2023-02-22T18:23:37;17.73;;;13.07;;
41627;SDS011;27321;50.816;6.054;2023-02-22T18:26:38;15.98;;;12.15;;
41627;SDS011;27321;50.816;6.054;2023-02-22T18:29:40;15.88;;;12.82;;
41627;SDS011;27321;50.816;6.054;2023-02-22T18:32:41;16.85;;;12.95;;
41627;SDS011;27321;50.816;6.054;2023-02-22T18:35:46;17.73;;;13.47;;
41627;SDS011;27321;50.816;6.054;2023-02-22T18:38:52;17.50;;;13.37;;
41627;SDS011;27321;50.816;6.054;2023-02-22T18:41:54;16.60;;;11.77;;
41627;SDS011;27321;50.816;6.054;2023-02-22T18:44:55;15.80;;;12.43;;
41627;SDS011;27321;50.816;6.054;2023-02-22T18:47:59;15.57;;;12.47;;
41627;SDS011;27321;50.816;6.054;2023-02-22T18:51:01;17.23;;;12.57;;
41627;SDS011;27321;50.816;6.054;2023-02-22T18:54:10;15.87;;;12.13;;
41627;SDS011;27321;50.816;6.054;2023-02-22T18:57:11;17.10;;;12.70;;
41627;SDS011;27321;50.816;6.054;2023-02-22T19:00:14;16.70;;;13.13;;
41627;SDS011;27321;50.816;6.054;2023-02-22T19:03:17;17.03;;;12.37;;
41627;SDS011;27321;50.816;6.054;2023-02-22T19:06:18;18.98;;;13.75;;
41627;SDS011;27321;50.816;6.054;2023-02-22T19:09:22;19.43;;;15.10;;
41627;SDS011;27321;50.816;6.054;2023-02-22T19:12:23;21.73;;;15.30;;
41627;SDS011;27321;50.816;6.054;2023-02-22T19:15:26;19.03;;;14.60;;
41627;SDS011;27321;50.816;6.054;2023-02-22T19:18:27;20.40;;;14.57;;
41627;SDS011;27321;50.816;6.054;2023-02-22T19:21:30;18.90;;;14.07;;
41627;SDS011;27321;50.816;6.054;2023-02-22T19:24:34;16.03;;;14.00;;
41627;SDS011;27321;50.816;6.054;2023-02-22T19:27:35;20.02;;;15.05;;
41627;SDS011;27321;50.816;6.054;2023-02-22T19:30:37;20.20;;;14.63;;
41627;SDS011;27321;50.816;6.054;2023-02-22T19:33:41;21.60;;;15.90;;
41627;SDS011;27321;50.816;6.054;2023-02-22T19:36:43;16.55;;;13.32;;
41627;SDS011;27321;50.816;6.054;2023-02-22T19:39:45;17.63;;;13.93;;
41627;SDS011;27321;50.816;6.054;2023-02-22T19:42:47;17.73;;;12.88;;
41627;SDS011;27321;50.816;6.054;2023-02-22T19:45:50;15.97;;;12.90;;
41627;SDS011;27321;50.816;6.054;2023-02-22T19:48:51;17.50;;;13.23;;
41627;SDS011;27321;50.816;6.054;2023-02-22T19:51:57;16.43;;;13.13;;
41627;SDS011;27321;50.816;6.054;2023-02-22T19:54:59;17.83;;;14.00;;
41627;SDS011;27321;50.816;6.054;2023-02-22T19:58:00;18.65;;;13.60;;
41627;SDS011;27321;50.816;6.054;2023-02-22T20:01:01;17.63;;;12.87;;
41627;SDS011;27321;50.816;6.054;2023-02-22T20:04:14;18.90;;;13.97;;
41627;SDS011;27321;50.816;6.054;2023-02-22T20:07:17;17.23;;;13.23;;
41627;SDS011;27321;50.816;6.054;2023-02-22T20:10:18;17.13;;;13.13;;
41627;SDS011;27321;50.816;6.054;2023-02-22T20:13:19;18.58;;;13.18;;
41627;SDS011;27321;50.816;6.054;2023-02-22T20:19:22;16.63;;;12.65;;
41627;SDS011;27321;50.816;6.054;2023-02-22T20:22:25;19.60;;;14.20;;
41627;SDS011;27321;50.816;6.054;2023-02-22T20:25:26;18.23;;;14.20;;
41627;SDS011;27321;50.816;6.054;2023-02-22T20:28:27;18.00;;;13.73;;
41627;SDS011;27321;50.816;6.054;2023-02-22T20:31:29;17.33;;;13.82;;
41627;SDS011;27321;50.816;6.054;2023-02-22T20:34:31;18.97;;;14.43;;
41627;SDS011;27321;50.816;6.054;2023-02-22T20:37:33;17.75;;;12.93;;